Terminal Aerodrome Forecast
Issued by NWS

Current Version | Previous Version | Graphics & Text | Print | Product List | Glossary On
Versions: 1 2 3 4 5 6 7 8 9 10 11 12 13 14 15 16
000
FTUS41 KILN 261700
TAFLCK
TAF
KLCK 261738Z 2618/2718 33010KT P6SM VCSH OVC015
     FM262100 32011KT P6SM OVC015
     FM270200 33007KT P6SM OVC025
     FM270500 34007KT P6SM SCT035 BKN150
     FM271300 34010KT P6SM VCSH BKN035
     FM271700 34012G22KT P6SM VCSH BKN035=

USA.gov is the U.S. government's official web portal to all federal, state and local government web resources and services.